sensor_id;sensor_type;location;lat;lon;timestamp;P1;durP1;ratioP1;P2;durP2;ratioP2
12798;SDS011;19250;42.646;26.980;2022-12-20T01:32:32;21.75;;;16.20;;
12798;SDS011;19250;42.646;26.980;2022-12-20T01:35:00;29.35;;;20.23;;
12798;SDS011;19250;42.646;26.980;2022-12-20T01:37:27;34.78;;;27.33;;
12798;SDS011;19250;42.646;26.980;2022-12-20T01:39:56;36.35;;;29.10;;
12798;SDS011;19250;42.646;26.980;2022-12-20T01:42:23;26.35;;;18.80;;
12798;SDS011;19250;42.646;26.980;2022-12-20T01:44:55;24.17;;;16.45;;
12798;SDS011;19250;42.646;26.980;2022-12-20T01:47:25;21.90;;;15.60;;
12798;SDS011;19250;42.646;26.980;2022-12-20T01:49:57;24.30;;;16.30;;
12798;SDS011;19250;42.646;26.980;2022-12-20T01:52:29;25.15;;;16.05;;
12798;SDS011;19250;42.646;26.980;2022-12-20T01:55:03;29.98;;;17.70;;
12798;SDS011;19250;42.646;26.980;2022-12-20T01:57:35;24.77;;;16.77;;
12798;SDS011;19250;42.646;26.980;2022-12-20T02:00:08;23.73;;;16.15;;
12798;SDS011;19250;42.646;26.980;2022-12-20T02:02:36;23.00;;;16.10;;
12798;SDS011;19250;42.646;26.980;2022-12-20T02:05:04;31.02;;;17.83;;
12798;SDS011;19250;42.646;26.980;2022-12-20T02:07:32;27.48;;;18.20;;
12798;SDS011;19250;42.646;26.980;2022-12-20T02:10:03;27.00;;;16.73;;
12798;SDS011;19250;42.646;26.980;2022-12-20T02:12:34;23.88;;;15.30;;
12798;SDS011;19250;42.646;26.980;2022-12-20T02:15:24;26.98;;;17.08;;
12798;SDS011;19250;42.646;26.980;2022-12-20T02:18:07;25.37;;;16.43;;
12798;SDS011;19250;42.646;26.980;2022-12-20T02:20:55;21.55;;;14.55;;
12798;SDS011;19250;42.646;26.980;2022-12-20T02:23:39;22.00;;;14.40;;
12798;SDS011;19250;42.646;26.980;2022-12-20T02:26:35;22.80;;;15.57;;
12798;SDS011;19250;42.646;26.980;2022-12-20T02:29:29;23.90;;;14.65;;
12798;SDS011;19250;42.646;26.980;2022-12-20T02:32:03;22.73;;;14.80;;
12798;SDS011;19250;42.646;26.980;2022-12-20T02:34:37;21.60;;;15.35;;
12798;SDS011;19250;42.646;26.980;2022-12-20T02:37:07;21.88;;;14.27;;
12798;SDS011;19250;42.646;26.980;2022-12-20T02:39:34;18.77;;;12.87;;
12798;SDS011;19250;42.646;26.980;2022-12-20T02:42:07;19.88;;;13.40;;
12798;SDS011;19250;42.646;26.980;2022-12-20T02:44:37;20.65;;;13.88;;
12798;SDS011;19250;42.646;26.980;2022-12-20T02:47:26;19.88;;;12.93;;
12798;SDS011;19250;42.646;26.980;2022-12-20T02:49:59;19.20;;;12.90;;
12798;SDS011;19250;42.646;26.980;2022-12-20T02:52:28;20.27;;;14.60;;
12798;SDS011;19250;42.646;26.980;2022-12-20T02:54:57;19.27;;;14.05;;
12798;SDS011;19250;42.646;26.980;2022-12-20T02:57:27;21.30;;;15.25;;
12798;SDS011;19250;42.646;26.980;2022-12-20T03:00:03;20.40;;;13.83;;
12798;SDS011;19250;42.646;26.980;2022-12-20T03:02:34;20.77;;;13.52;;
12798;SDS011;19250;42.646;26.980;2022-12-20T03:05:16;18.17;;;13.02;;
12798;SDS011;19250;42.646;26.980;2022-12-20T03:07:45;21.37;;;13.37;;
12798;SDS011;19250;42.646;26.980;2022-12-20T03:10:13;19.60;;;14.00;;
12798;SDS011;19250;42.646;26.980;2022-12-20T03:12:40;23.95;;;16.58;;
12798;SDS011;19250;42.646;26.980;2022-12-20T03:15:07;23.17;;;16.20;;
12798;SDS011;19250;42.646;26.980;2022-12-20T03:17:37;25.40;;;16.87;;
12798;SDS011;19250;42.646;26.980;2022-12-20T03:20:04;30.52;;;19.65;;
12798;SDS011;19250;42.646;26.980;2022-12-20T03:22:35;32.60;;;21.45;;
12798;SDS011;19250;42.646;26.980;2022-12-20T03:25:03;35.70;;;23.30;;
12798;SDS011;19250;42.646;26.980;2022-12-20T03:27:30;34.03;;;23.67;;
12798;SDS011;19250;42.646;26.980;2022-12-20T03:29:58;33.75;;;22.70;;
12798;SDS011;19250;42.646;26.980;2022-12-20T03:32:25;34.65;;;24.75;;
12798;SDS011;19250;42.646;26.980;2022-12-20T03:34:55;33.25;;;23.73;;
12798;SDS011;19250;42.646;26.980;2022-12-20T03:37:22;32.28;;;22.63;;
12798;SDS011;19250;42.646;26.980;2022-12-20T03:39:49;31.58;;;23.45;;
12798;SDS011;19250;42.646;26.980;2022-12-20T03:42:16;31.98;;;23.90;;
12798;SDS011;19250;42.646;26.980;2022-12-20T03:44:43;29.73;;;23.55;;
12798;SDS011;19250;42.646;26.980;2022-12-20T03:47:11;29.97;;;22.43;;
12798;SDS011;19250;42.646;26.980;2022-12-20T03:49:38;27.33;;;19.73;;
12798;SDS011;19250;42.646;26.980;2022-12-20T03:52:07;26.02;;;18.02;;
12798;SDS011;19250;42.646;26.980;2022-12-20T03:54:35;27.52;;;18.52;;
12798;SDS011;19250;42.646;26.980;2022-12-20T03:57:02;31.47;;;19.77;;
12798;SDS011;19250;42.646;26.980;2022-12-20T03:59:30;25.98;;;18.88;;
12798;SDS011;19250;42.646;26.980;2022-12-20T04:01:57;28.87;;;19.97;;
12798;SDS011;19250;42.646;26.980;2022-12-20T04:04:24;60.53;;;36.88;;
12798;SDS011;19250;42.646;26.980;2022-12-20T04:06:51;39.33;;;26.05;;
12798;SDS011;19250;42.646;26.980;2022-12-20T04:09:20;32.45;;;22.48;;
12798;SDS011;19250;42.646;26.980;2022-12-20T04:11:47;31.05;;;22.60;;
12798;SDS011;19250;42.646;26.980;2022-12-20T04:14:15;29.13;;;21.70;;
12798;SDS011;19250;42.646;26.980;2022-12-20T04:16:43;30.45;;;22.60;;
12798;SDS011;19250;42.646;26.980;2022-12-20T04:19:10;29.02;;;22.65;;
12798;SDS011;19250;42.646;26.980;2022-12-20T04:21:38;27.58;;;21.75;;
12798;SDS011;19250;42.646;26.980;2022-12-20T04:24:06;30.33;;;22.25;;
12798;SDS011;19250;42.646;26.980;2022-12-20T04:26:35;30.35;;;21.38;;
12798;SDS011;19250;42.646;26.980;2022-12-20T04:29:02;36.22;;;25.70;;
12798;SDS011;19250;42.646;26.980;2022-12-20T04:31:30;39.25;;;27.88;;
12798;SDS011;19250;42.646;26.980;2022-12-20T04:33:57;37.30;;;27.85;;
12798;SDS011;19250;42.646;26.980;2022-12-20T04:36:24;49.83;;;38.20;;
12798;SDS011;19250;42.646;26.980;2022-12-20T04:38:52;55.05;;;41.70;;
12798;SDS011;19250;42.646;26.980;2022-12-20T04:41:19;46.90;;;35.55;;
12798;SDS011;19250;42.646;26.980;2022-12-20T04:43:53;48.22;;;35.60;;
12798;SDS011;19250;42.646;26.980;2022-12-20T04:46:22;42.15;;;31.17;;
12798;SDS011;19250;42.646;26.980;2022-12-20T04:48:50;39.80;;;32.00;;
12798;SDS011;19250;42.646;26.980;2022-12-20T04:51:17;46.25;;;35.33;;
12798;SDS011;19250;42.646;26.980;2022-12-20T04:53:44;43.50;;;33.67;;
12798;SDS011;19250;42.646;26.980;2022-12-20T04:56:18;45.90;;;31.80;;
12798;SDS011;19250;42.646;26.980;2022-12-20T04:58:48;37.25;;;27.70;;
12798;SDS011;19250;42.646;26.980;2022-12-20T05:01:18;39.85;;;28.42;;
12798;SDS011;19250;42.646;26.980;2022-12-20T05:03:46;41.50;;;32.17;;
12798;SDS011;19250;42.646;26.980;2022-12-20T05:06:14;43.13;;;31.25;;
12798;SDS011;19250;42.646;26.980;2022-12-20T05:08:41;42.67;;;33.47;;
12798;SDS011;19250;42.646;26.980;2022-12-20T05:14:30;46.58;;;35.58;;
12798;SDS011;19250;42.646;26.980;2022-12-20T05:16:59;49.35;;;36.30;;
12798;SDS011;19250;42.646;26.980;2022-12-20T05:19:26;62.17;;;44.05;;
12798;SDS011;19250;42.646;26.980;2022-12-20T05:21:53;57.97;;;43.03;;
12798;SDS011;19250;42.646;26.980;2022-12-20T05:24:38;53.78;;;38.95;;
12798;SDS011;19250;42.646;26.980;2022-12-20T05:27:22;53.78;;;38.78;;
12798;SDS011;19250;42.646;26.980;2022-12-20T05:29:49;56.73;;;43.20;;
12798;SDS011;19250;42.646;26.980;2022-12-20T05:32:18;66.10;;;50.78;;
12798;SDS011;19250;42.646;26.980;2022-12-20T05:34:45;74.68;;;57.08;;
12798;SDS011;19250;42.646;26.980;2022-12-20T05:37:13;82.38;;;61.30;;
12798;SDS011;19250;42.646;26.980;2022-12-20T05:39:40;65.97;;;49.55;;
12798;SDS011;19250;42.646;26.980;2022-12-20T05:42:07;65.80;;;48.30;;
12798;SDS011;19250;42.646;26.980;2022-12-20T05:44:34;67.47;;;44.40;;
12798;SDS011;19250;42.646;26.980;2022-12-20T05:47:02;67.60;;;43.27;;
12798;SDS011;19250;42.646;26.980;2022-12-20T05:49:31;60.30;;;43.03;;
12798;SDS011;19250;42.646;26.980;2022-12-20T05:51:59;68.05;;;48.63;;
12798;SDS011;19250;42.646;26.980;2022-12-20T05:54:26;53.50;;;37.70;;
12798;SDS011;19250;42.646;26.980;2022-12-20T05:56:54;50.60;;;34.13;;
12798;SDS011;19250;42.646;26.980;2022-12-20T05:59:21;65.30;;;43.80;;
12798;SDS011;19250;42.646;26.980;2022-12-20T06:01:48;47.22;;;33.83;;
12798;SDS011;19250;42.646;26.980;2022-12-20T06:04:15;53.65;;;38.50;;
12798;SDS011;19250;42.646;26.980;2022-12-20T06:06:45;55.22;;;41.25;;
12798;SDS011;19250;42.646;26.980;2022-12-20T06:09:12;59.30;;;45.67;;
12798;SDS011;19250;42.646;26.980;2022-12-20T06:11:40;56.03;;;40.58;;
12798;SDS011;19250;42.646;26.980;2022-12-20T06:14:07;48.53;;;35.65;;
12798;SDS011;19250;42.646;26.980;2022-12-20T06:16:34;53.17;;;38.33;;
12798;SDS011;19250;42.646;26.980;2022-12-20T06:19:01;47.10;;;33.38;;
12798;SDS011;19250;42.646;26.980;2022-12-20T06:21:29;47.60;;;34.55;;
12798;SDS011;19250;42.646;26.980;2022-12-20T06:23:57;51.97;;;37.60;;
12798;SDS011;19250;42.646;26.980;2022-12-20T06:26:26;38.85;;;31.30;;
12798;SDS011;19250;42.646;26.980;2022-12-20T06:29:00;56.25;;;39.08;;
12798;SDS011;19250;42.646;26.980;2022-12-20T06:31:27;48.73;;;35.43;;
12798;SDS011;19250;42.646;26.980;2022-12-20T06:33:54;68.30;;;46.72;;
12798;SDS011;19250;42.646;26.980;2022-12-20T06:36:22;70.82;;;50.70;;
12798;SDS011;19250;42.646;26.980;2022-12-20T06:38:50;218.65;;;129.20;;
12798;SDS011;19250;42.646;26.980;2022-12-20T06:41:19;54.47;;;38.40;;
12798;SDS011;19250;42.646;26.980;2022-12-20T06:43:46;47.58;;;35.88;;
12798;SDS011;19250;42.646;26.980;2022-12-20T06:46:13;53.67;;;40.17;;
12798;SDS011;19250;42.646;26.980;2022-12-20T06:48:40;58.65;;;44.65;;
12798;SDS011;19250;42.646;26.980;2022-12-20T06:51:08;45.85;;;33.65;;
12798;SDS011;19250;42.646;26.980;2022-12-20T06:53:35;70.65;;;46.75;;
12798;SDS011;19250;42.646;26.980;2022-12-20T06:56:02;57.25;;;39.60;;
12798;SDS011;19250;42.646;26.980;2022-12-20T06:58:32;56.47;;;36.60;;
12798;SDS011;19250;42.646;26.980;2022-12-20T07:00:59;48.53;;;35.17;;
12798;SDS011;19250;42.646;26.980;2022-12-20T07:03:26;45.72;;;32.22;;
12798;SDS011;19250;42.646;26.980;2022-12-20T07:05:53;44.72;;;32.58;;
12798;SDS011;19250;42.646;26.980;2022-12-20T07:08:21;43.00;;;31.37;;
12798;SDS011;19250;42.646;26.980;2022-12-20T07:10:50;44.45;;;34.88;;
12798;SDS011;19250;42.646;26.980;2022-12-20T07:13:18;44.13;;;32.20;;
12798;SDS011;19250;42.646;26.980;2022-12-20T07:15:47;44.58;;;32.90;;
12798;SDS011;19250;42.646;26.980;2022-12-20T07:18:14;42.28;;;30.35;;
12798;SDS011;19250;42.646;26.980;2022-12-20T07:20:42;40.30;;;30.35;;
12798;SDS011;19250;42.646;26.980;2022-12-20T07:23:09;45.75;;;33.55;;
12798;SDS011;19250;42.646;26.980;2022-12-20T07:25:36;45.25;;;32.63;;
12798;SDS011;19250;42.646;26.980;2022-12-20T07:28:03;49.47;;;36.70;;
12798;SDS011;19250;42.646;26.980;2022-12-20T07:30:31;32.20;;;23.17;;
12798;SDS011;19250;42.646;26.980;2022-12-20T07:32:59;42.78;;;31.00;;
12798;SDS011;19250;42.646;26.980;2022-12-20T07:35:27;40.05;;;27.20;;
12798;SDS011;19250;42.646;26.980;2022-12-20T07:37:54;42.83;;;31.48;;
12798;SDS011;19250;42.646;26.980;2022-12-20T07:40:21;49.22;;;38.88;;
12798;SDS011;19250;42.646;26.980;2022-12-20T07:42:48;39.58;;;28.83;;
12798;SDS011;19250;42.646;26.980;2022-12-20T07:45:16;36.53;;;27.17;;
12798;SDS011;19250;42.646;26.980;2022-12-20T07:47:43;37.45;;;26.00;;
12798;SDS011;19250;42.646;26.980;2022-12-20T07:50:12;31.25;;;22.52;;
12798;SDS011;19250;42.646;26.980;2022-12-20T07:52:40;58.75;;;37.65;;
12798;SDS011;19250;42.646;26.980;2022-12-20T07:55:11;34.65;;;24.83;;
12798;SDS011;19250;42.646;26.980;2022-12-20T07:57:40;35.10;;;25.38;;
12798;SDS011;19250;42.646;26.980;2022-12-20T08:00:10;32.85;;;22.00;;
12798;SDS011;19250;42.646;26.980;2022-12-20T08:02:40;30.10;;;21.65;;
12798;SDS011;19250;42.646;26.980;2022-12-20T08:05:14;37.92;;;27.15;;
12798;SDS011;19250;42.646;26.980;2022-12-20T08:07:42;30.85;;;24.25;;
12798;SDS011;19250;42.646;26.980;2022-12-20T08:10:11;27.88;;;21.90;;
12798;SDS011;19250;42.646;26.980;2022-12-20T08:12:40;30.77;;;22.52;;
12798;SDS011;19250;42.646;26.980;2022-12-20T08:15:09;22.70;;;16.67;;
12798;SDS011;19250;42.646;26.980;2022-12-20T08:17:37;29.92;;;23.17;;
12798;SDS011;19250;42.646;26.980;2022-12-20T08:20:05;29.80;;;22.17;;
12798;SDS011;19250;42.646;26.980;2022-12-20T08:22:35;28.38;;;21.00;;
12798;SDS011;19250;42.646;26.980;2022-12-20T08:25:02;31.20;;;22.80;;
12798;SDS011;19250;42.646;26.980;2022-12-20T08:27:29;32.28;;;26.38;;
12798;SDS011;19250;42.646;26.980;2022-12-20T08:29:58;24.17;;;16.55;;
12798;SDS011;19250;42.646;26.980;2022-12-20T08:32:25;20.80;;;15.05;;
12798;SDS011;19250;42.646;26.980;2022-12-20T08:34:53;31.60;;;24.27;;
12798;SDS011;19250;42.646;26.980;2022-12-20T08:37:21;28.47;;;20.83;;
12798;SDS011;19250;42.646;26.980;2022-12-20T08:39:50;32.50;;;23.85;;
12798;SDS011;19250;42.646;26.980;2022-12-20T08:42:17;22.15;;;14.77;;
12798;SDS011;19250;42.646;26.980;2022-12-20T08:44:45;32.65;;;23.83;;
12798;SDS011;19250;42.646;26.980;2022-12-20T08:47:12;32.95;;;22.95;;
12798;SDS011;19250;42.646;26.980;2022-12-20T08:49:39;33.53;;;26.23;;
12798;SDS011;19250;42.646;26.980;2022-12-20T08:52:08;31.83;;;23.13;;
12798;SDS011;19250;42.646;26.980;2022-12-20T08:54:35;35.83;;;25.15;;
12798;SDS011;19250;42.646;26.980;2022-12-20T08:57:04;39.00;;;27.33;;
12798;SDS011;19250;42.646;26.980;2022-12-20T08:59:31;34.75;;;25.60;;
12798;SDS011;19250;42.646;26.980;2022-12-20T09:01:58;35.45;;;27.00;;
12798;SDS011;19250;42.646;26.980;2022-12-20T09:04:25;29.13;;;21.10;;
12798;SDS011;19250;42.646;26.980;2022-12-20T09:06:53;21.88;;;16.38;;
12798;SDS011;19250;42.646;26.980;2022-12-20T09:09:20;18.60;;;14.77;;
12798;SDS011;19250;42.646;26.980;2022-12-20T09:11:48;28.25;;;21.60;;
12798;SDS011;19250;42.646;26.980;2022-12-20T09:14:17;26.33;;;20.70;;
12798;SDS011;19250;42.646;26.980;2022-12-20T09:16:45;27.20;;;20.45;;
12798;SDS011;19250;42.646;26.980;2022-12-20T09:19:12;52.38;;;39.50;;
12798;SDS011;19250;42.646;26.980;2022-12-20T09:21:40;26.65;;;21.58;;
12798;SDS011;19250;42.646;26.980;2022-12-20T09:24:07;26.52;;;21.88;;
12798;SDS011;19250;42.646;26.980;2022-12-20T09:26:35;19.73;;;17.23;;
12798;SDS011;19250;42.646;26.980;2022-12-20T09:29:05;33.38;;;27.60;;
12798;SDS011;19250;42.646;26.980;2022-12-20T09:31:33;48.63;;;41.47;;
12798;SDS011;19250;42.646;26.980;2022-12-20T09:34:01;37.47;;;31.17;;
12798;SDS011;19250;42.646;26.980;2022-12-20T09:36:28;33.08;;;27.10;;
12798;SDS011;19250;42.646;26.980;2022-12-20T09:38:56;28.57;;;22.73;;
12798;SDS011;19250;42.646;26.980;2022-12-20T09:41:25;326.17;;;134.27;;
12798;SDS011;19250;42.646;26.980;2022-12-20T09:43:57;79.63;;;67.88;;
12798;SDS011;19250;42.646;26.980;2022-12-20T09:46:29;23.67;;;19.98;;
12798;SDS011;19250;42.646;26.980;2022-12-20T09:48:58;24.27;;;18.60;;
12798;SDS011;19250;42.646;26.980;2022-12-20T09:51:30;32.30;;;24.60;;
12798;SDS011;19250;42.646;26.980;2022-12-20T09:54:12;25.60;;;22.13;;
12798;SDS011;19250;42.646;26.980;2022-12-20T09:56:50;24.60;;;19.17;;
12798;SDS011;19250;42.646;26.980;2022-12-20T09:59:25;24.15;;;19.75;;
12798;SDS011;19250;42.646;26.980;2022-12-20T10:01:54;16.02;;;12.93;;
12798;SDS011;19250;42.646;26.980;2022-12-20T10:04:23;22.90;;;16.67;;
12798;SDS011;19250;42.646;26.980;2022-12-20T10:07:02;29.25;;;20.13;;
12798;SDS011;19250;42.646;26.980;2022-12-20T10:09:50;20.63;;;14.38;;
12798;SDS011;19250;42.646;26.980;2022-12-20T10:12:43;34.72;;;29.20;;
12798;SDS011;19250;42.646;26.980;2022-12-20T10:15:18;29.03;;;23.03;;
12798;SDS011;19250;42.646;26.980;2022-12-20T10:17:59;15.73;;;12.48;;
12798;SDS011;19250;42.646;26.980;2022-12-20T10:20:45;16.02;;;14.20;;
12798;SDS011;19250;42.646;26.980;2022-12-20T10:23:24;17.80;;;14.13;;
12798;SDS011;19250;42.646;26.980;2022-12-20T10:25:58;18.77;;;14.83;;
12798;SDS011;19250;42.646;26.980;2022-12-20T10:28:27;24.42;;;18.77;;
12798;SDS011;19250;42.646;26.980;2022-12-20T10:30:57;15.13;;;12.80;;
12798;SDS011;19250;42.646;26.980;2022-12-20T10:33:27;16.63;;;13.55;;
12798;SDS011;19250;42.646;26.980;2022-12-20T10:35:59;23.63;;;18.10;;
12798;SDS011;19250;42.646;26.980;2022-12-20T10:38:46;21.53;;;16.27;;
12798;SDS011;19250;42.646;26.980;2022-12-20T10:41:15;20.15;;;14.77;;
12798;SDS011;19250;42.646;26.980;2022-12-20T10:43:44;23.02;;;15.98;;
12798;SDS011;19250;42.646;26.980;2022-12-20T10:46:14;20.38;;;16.40;;
12798;SDS011;19250;42.646;26.980;2022-12-20T10:48:42;23.17;;;18.23;;
12798;SDS011;19250;42.646;26.980;2022-12-20T10:51:14;27.90;;;19.88;;
12798;SDS011;19250;42.646;26.980;2022-12-20T10:53:54;20.67;;;14.40;;
12798;SDS011;19250;42.646;26.980;2022-12-20T10:56:23;21.27;;;16.80;;
12798;SDS011;19250;42.646;26.980;2022-12-20T10:58:54;20.63;;;16.48;;
12798;SDS011;19250;42.646;26.980;2022-12-20T11:01:25;29.23;;;20.90;;
12798;SDS011;19250;42.646;26.980;2022-12-20T11:03:56;27.70;;;22.58;;
12798;SDS011;19250;42.646;26.980;2022-12-20T11:06:28;22.88;;;17.73;;
12798;SDS011;19250;42.646;26.980;2022-12-20T11:09:20;20.67;;;15.90;;
12798;SDS011;19250;42.646;26.980;2022-12-20T11:11:59;23.27;;;18.65;;
12798;SDS011;19250;42.646;26.980;2022-12-20T11:14:29;15.85;;;13.13;;
12798;SDS011;19250;42.646;26.980;2022-12-20T11:16:58;19.58;;;15.75;;
12798;SDS011;19250;42.646;26.980;2022-12-20T11:19:35;51.70;;;39.30;;
12798;SDS011;19250;42.646;26.980;2022-12-20T11:22:16;26.27;;;19.10;;
12798;SDS011;19250;42.646;26.980;2022-12-20T11:24:57;19.35;;;15.20;;
12798;SDS011;19250;42.646;26.980;2022-12-20T11:27:39;16.67;;;13.30;;
12798;SDS011;19250;42.646;26.980;2022-12-20T11:30:15;16.58;;;13.05;;
12798;SDS011;19250;42.646;26.980;2022-12-20T11:32:58;17.35;;;15.23;;
12798;SDS011;19250;42.646;26.980;2022-12-20T11:35:45;17.88;;;13.98;;
12798;SDS011;19250;42.646;26.980;2022-12-20T11:38:24;21.02;;;16.73;;
12798;SDS011;19250;42.646;26.980;2022-12-20T11:41:09;16.60;;;13.30;;
12798;SDS011;19250;42.646;26.980;2022-12-20T11:43:56;18.38;;;12.55;;
12798;SDS011;19250;42.646;26.980;2022-12-20T11:46:39;14.82;;;10.68;;
12798;SDS011;19250;42.646;26.980;2022-12-20T11:49:24;16.45;;;12.52;;
12798;SDS011;19250;42.646;26.980;2022-12-20T11:52:03;28.83;;;20.90;;
12798;SDS011;19250;42.646;26.980;2022-12-20T11:54:37;13.30;;;10.95;;
12798;SDS011;19250;42.646;26.980;2022-12-20T11:57:12;17.73;;;12.15;;
12798;SDS011;19250;42.646;26.980;2022-12-20T11:59:44;18.13;;;16.20;;
12798;SDS011;19250;42.646;26.980;2022-12-20T12:02:19;17.55;;;15.10;;
12798;SDS011;19250;42.646;26.980;2022-12-20T12:04:53;21.20;;;17.15;;
12798;SDS011;19250;42.646;26.980;2022-12-20T12:07:26;11.80;;;9.27;;
12798;SDS011;19250;42.646;26.980;2022-12-20T12:09:59;14.60;;;10.00;;
12798;SDS011;19250;42.646;26.980;2022-12-20T12:12:30;23.70;;;16.27;;
12798;SDS011;19250;42.646;26.980;2022-12-20T12:15:18;21.50;;;17.83;;
12798;SDS011;19250;42.646;26.980;2022-12-20T12:17:56;21.13;;;16.23;;
12798;SDS011;19250;42.646;26.980;2022-12-20T12:20:30;47.22;;;36.53;;
12798;SDS011;19250;42.646;26.980;2022-12-20T12:23:15;20.83;;;17.58;;
12798;SDS011;19250;42.646;26.980;2022-12-20T12:25:49;51.08;;;26.88;;
12798;SDS011;19250;42.646;26.980;2022-12-20T12:28:17;31.13;;;18.63;;
12798;SDS011;19250;42.646;26.980;2022-12-20T12:30:46;21.50;;;14.43;;
12798;SDS011;19250;42.646;26.980;2022-12-20T12:33:19;20.35;;;15.80;;
12798;SDS011;19250;42.646;26.980;2022-12-20T12:35:54;24.58;;;20.95;;
12798;SDS011;19250;42.646;26.980;2022-12-20T12:38:46;22.25;;;17.50;;
12798;SDS011;19250;42.646;26.980;2022-12-20T12:41:49;25.77;;;19.83;;
12798;SDS011;19250;42.646;26.980;2022-12-20T12:44:33;37.42;;;28.40;;
12798;SDS011;19250;42.646;26.980;2022-12-20T12:47:09;20.58;;;15.57;;
12798;SDS011;19250;42.646;26.980;2022-12-20T12:49:41;18.63;;;14.23;;
12798;SDS011;19250;42.646;26.980;2022-12-20T12:58:14;18.67;;;14.90;;
12798;SDS011;19250;42.646;26.980;2022-12-20T13:00:56;21.23;;;18.92;;
12798;SDS011;19250;42.646;26.980;2022-12-20T13:03:35;19.48;;;15.18;;
12798;SDS011;19250;42.646;26.980;2022-12-20T13:09:15;20.67;;;16.10;;
12798;SDS011;19250;42.646;26.980;2022-12-20T13:11:46;20.02;;;16.63;;
12798;SDS011;19250;42.646;26.980;2022-12-20T13:20:18;28.27;;;23.55;;
12798;SDS011;19250;42.646;26.980;2022-12-20T13:25:43;38.47;;;34.33;;
12798;SDS011;19250;42.646;26.980;2022-12-20T13:31:31;13.85;;;12.02;;
12798;SDS011;19250;42.646;26.980;2022-12-20T13:33:59;12.90;;;11.30;;
12798;SDS011;19250;42.646;26.980;2022-12-20T13:36:30;14.02;;;10.00;;
12798;SDS011;19250;42.646;26.980;2022-12-20T13:39:00;16.02;;;11.60;;
12798;SDS011;19250;42.646;26.980;2022-12-20T13:41:44;23.40;;;13.52;;
12798;SDS011;19250;42.646;26.980;2022-12-20T13:47:11;44.17;;;36.45;;
12798;SDS011;19250;42.646;26.980;2022-12-20T13:49:49;22.73;;;17.83;;
12798;SDS011;19250;42.646;26.980;2022-12-20T13:52:22;24.88;;;17.98;;
12798;SDS011;19250;42.646;26.980;2022-12-20T13:54:53;17.17;;;14.85;;
12798;SDS011;19250;42.646;26.980;2022-12-20T13:57:28;21.17;;;16.42;;
12798;SDS011;19250;42.646;26.980;2022-12-20T14:00:00;27.50;;;23.60;;
12798;SDS011;19250;42.646;26.980;2022-12-20T14:02:33;17.83;;;14.43;;
12798;SDS011;19250;42.646;26.980;2022-12-20T14:05:06;15.38;;;10.75;;
12798;SDS011;19250;42.646;26.980;2022-12-20T14:07:40;37.38;;;30.75;;
12798;SDS011;19250;42.646;26.980;2022-12-20T14:10:15;43.28;;;34.78;;
12798;SDS011;19250;42.646;26.980;2022-12-20T14:12:45;26.38;;;20.02;;
12798;SDS011;19250;42.646;26.980;2022-12-20T14:18:05;36.13;;;28.80;;
12798;SDS011;19250;42.646;26.980;2022-12-20T14:20:43;22.93;;;19.17;;
12798;SDS011;19250;42.646;26.980;2022-12-20T14:23:13;34.13;;;23.30;;
12798;SDS011;19250;42.646;26.980;2022-12-20T14:25:45;45.22;;;29.15;;
12798;SDS011;19250;42.646;26.980;2022-12-20T14:28:16;39.15;;;30.92;;
12798;SDS011;19250;42.646;26.980;2022-12-20T14:30:48;50.42;;;44.17;;
12798;SDS011;19250;42.646;26.980;2022-12-20T14:33:22;45.88;;;36.72;;
12798;SDS011;19250;42.646;26.980;2022-12-20T14:35:54;40.40;;;33.65;;
12798;SDS011;19250;42.646;26.980;2022-12-20T14:38:27;40.72;;;34.00;;
12798;SDS011;19250;42.646;26.980;2022-12-20T14:40:56;36.63;;;29.13;;
12798;SDS011;19250;42.646;26.980;2022-12-20T14:43:25;31.20;;;26.17;;
12798;SDS011;19250;42.646;26.980;2022-12-20T14:46:07;27.70;;;23.10;;
12798;SDS011;19250;42.646;26.980;2022-12-20T14:48:43;36.17;;;28.33;;
12798;SDS011;19250;42.646;26.980;2022-12-20T14:51:11;31.65;;;24.25;;
12798;SDS011;19250;42.646;26.980;2022-12-20T14:53:43;36.45;;;26.10;;
12798;SDS011;19250;42.646;26.980;2022-12-20T14:56:12;43.75;;;31.55;;
12798;SDS011;19250;42.646;26.980;2022-12-20T14:58:43;38.78;;;33.13;;
12798;SDS011;19250;42.646;26.980;2022-12-20T15:01:18;43.63;;;34.85;;
12798;SDS011;19250;42.646;26.980;2022-12-20T15:03:51;31.98;;;23.85;;
12798;SDS011;19250;42.646;26.980;2022-12-20T15:06:30;35.05;;;27.30;;
12798;SDS011;19250;42.646;26.980;2022-12-20T15:08:58;43.75;;;32.28;;
12798;SDS011;19250;42.646;26.980;2022-12-20T15:11:26;39.63;;;30.70;;
12798;SDS011;19250;42.646;26.980;2022-12-20T15:13:54;41.92;;;31.17;;
12798;SDS011;19250;42.646;26.980;2022-12-20T15:16:23;45.33;;;37.22;;
12798;SDS011;19250;42.646;26.980;2022-12-20T15:18:53;43.35;;;34.83;;
12798;SDS011;19250;42.646;26.980;2022-12-20T15:21:24;50.00;;;35.93;;
12798;SDS011;19250;42.646;26.980;2022-12-20T15:23:55;42.83;;;31.38;;
12798;SDS011;19250;42.646;26.980;2022-12-20T15:26:24;42.28;;;30.83;;
12798;SDS011;19250;42.646;26.980;2022-12-20T15:28:52;75.25;;;56.17;;
12798;SDS011;19250;42.646;26.980;2022-12-20T15:31:20;82.85;;;61.33;;
12798;SDS011;19250;42.646;26.980;2022-12-20T15:33:49;114.68;;;81.68;;
12798;SDS011;19250;42.646;26.980;2022-12-20T15:36:20;92.93;;;67.63;;
12798;SDS011;19250;42.646;26.980;2022-12-20T15:38:50;73.15;;;54.30;;
12798;SDS011;19250;42.646;26.980;2022-12-20T15:41:18;109.60;;;74.45;;
12798;SDS011;19250;42.646;26.980;2022-12-20T15:43:49;99.20;;;73.10;;
12798;SDS011;19250;42.646;26.980;2022-12-20T15:46:18;75.32;;;57.35;;
12798;SDS011;19250;42.646;26.980;2022-12-20T15:48:45;46.63;;;35.77;;
12798;SDS011;19250;42.646;26.980;2022-12-20T15:51:13;54.50;;;39.80;;
12798;SDS011;19250;42.646;26.980;2022-12-20T15:53:44;61.87;;;48.93;;
12798;SDS011;19250;42.646;26.980;2022-12-20T15:56:15;98.68;;;68.05;;
12798;SDS011;19250;42.646;26.980;2022-12-20T15:58:46;112.35;;;73.88;;
12798;SDS011;19250;42.646;26.980;2022-12-20T16:01:15;111.60;;;78.45;;
12798;SDS011;19250;42.646;26.980;2022-12-20T16:03:44;118.28;;;83.72;;
12798;SDS011;19250;42.646;26.980;2022-12-20T16:06:11;95.78;;;70.40;;
12798;SDS011;19250;42.646;26.980;2022-12-20T16:08:39;156.52;;;105.60;;
12798;SDS011;19250;42.646;26.980;2022-12-20T16:11:10;117.43;;;84.57;;
12798;SDS011;19250;42.646;26.980;2022-12-20T16:13:46;309.83;;;233.38;;
12798;SDS011;19250;42.646;26.980;2022-12-20T16:16:14;395.90;;;306.58;;
12798;SDS011;19250;42.646;26.980;2022-12-20T16:18:43;90.53;;;70.78;;
12798;SDS011;19250;42.646;26.980;2022-12-20T16:21:13;134.75;;;104.28;;
12798;SDS011;19250;42.646;26.980;2022-12-20T16:23:43;103.10;;;78.67;;
12798;SDS011;19250;42.646;26.980;2022-12-20T16:26:12;81.70;;;65.28;;
12798;SDS011;19250;42.646;26.980;2022-12-20T16:28:40;97.80;;;78.07;;
12798;SDS011;19250;42.646;26.980;2022-12-20T16:31:09;163.20;;;117.82;;
12798;SDS011;19250;42.646;26.980;2022-12-20T16:33:43;145.25;;;106.50;;